createdAt,value
2023-05-14T00:03:28.751Z,4.70
2023-05-14T00:07:00.934Z,4.67
2023-05-14T00:10:33.305Z,4.28
2023-05-14T00:14:07.657Z,4.20
2023-05-14T00:17:39.644Z,4.63
2023-05-14T00:21:11.615Z,4.23
2023-05-14T00:24:43.727Z,4.93
2023-05-14T00:28:15.676Z,4.55
2023-05-14T00:31:47.997Z,4.60
2023-05-14T00:35:21.528Z,5.07
2023-05-14T00:38:53.289Z,5.57
2023-05-14T00:42:27.123Z,6.07
2023-05-14T00:45:59.630Z,5.13
2023-05-14T00:49:31.918Z,6.27
2023-05-14T00:53:10.183Z,5.70
2023-05-14T00:56:45.640Z,6.05
2023-05-14T01:00:17.747Z,6.67
2023-05-14T01:03:50.153Z,6.93
2023-05-14T01:07:40.426Z,6.25
2023-05-14T01:11:20.155Z,6.60
2023-05-14T01:15:06.498Z,6.17
2023-05-14T01:18:40.998Z,5.63
2023-05-14T01:22:13.751Z,5.63
2023-05-14T01:25:45.517Z,6.10
2023-05-14T01:29:22.651Z,6.60
2023-05-14T01:32:58.102Z,6.17
2023-05-14T01:36:31.385Z,6.55
2023-05-14T01:40:04.714Z,7.05
2023-05-14T01:43:37.620Z,7.10
2023-05-14T01:47:09.669Z,6.57
2023-05-14T01:50:41.530Z,7.30
2023-05-14T01:54:13.753Z,6.38
2023-05-14T01:57:45.435Z,7.03
2023-05-14T02:01:17.582Z,6.83
2023-05-14T02:04:50.116Z,7.28
2023-05-14T02:08:22.106Z,7.22
2023-05-14T02:11:54.029Z,5.70
2023-05-14T02:15:25.952Z,6.82
2023-05-14T02:18:58.076Z,6.13
2023-05-14T02:22:29.860Z,7.07
2023-05-14T02:26:02.204Z,6.30
2023-05-14T02:29:33.973Z,7.10
2023-05-14T02:33:06.088Z,6.30
2023-05-14T02:36:37.941Z,6.03
2023-05-14T02:40:10.530Z,6.00
2023-05-14T02:43:42.474Z,6.70
2023-05-14T02:47:14.204Z,6.20
2023-05-14T02:50:46.915Z,6.57
2023-05-14T02:54:18.771Z,6.50
2023-05-14T02:57:52.660Z,6.85
2023-05-14T03:04:56.444Z,7.50
2023-05-14T03:08:28.456Z,7.82
2023-05-14T03:12:00.616Z,7.63
2023-05-14T03:15:32.819Z,7.63
2023-05-14T03:19:04.491Z,7.93
2023-05-14T03:22:36.656Z,7.20
2023-05-14T03:26:08.477Z,7.43
2023-05-14T03:29:40.454Z,8.13
2023-05-14T03:33:13.809Z,6.90
2023-05-14T03:36:46.051Z,7.18
2023-05-14T03:40:18.188Z,6.80
2023-05-14T03:43:49.849Z,7.27
2023-05-14T03:47:21.996Z,7.03
2023-05-14T03:50:53.900Z,7.80
2023-05-14T03:54:26.389Z,7.53
2023-05-14T03:57:58.173Z,8.20
2023-05-14T04:01:30.402Z,7.45
2023-05-14T04:05:02.111Z,8.18
2023-05-14T04:08:34.084Z,7.05
2023-05-14T04:12:06.729Z,7.33
2023-05-14T04:15:39.397Z,7.63
2023-05-14T04:19:11.677Z,7.07
2023-05-14T04:22:43.479Z,8.10
2023-05-14T04:26:15.626Z,6.90
2023-05-14T04:29:47.933Z,6.90
2023-05-14T04:33:19.972Z,6.60
2023-05-14T04:36:52.762Z,7.63
2023-05-14T04:40:24.560Z,8.20
2023-05-14T04:43:59.178Z,7.93
2023-05-14T04:47:31.704Z,7.25
2023-05-14T04:51:06.278Z,7.25
2023-05-14T04:54:38.948Z,6.87
2023-05-14T04:58:11.107Z,6.65
2023-05-14T05:01:43.129Z,6.88
2023-05-14T05:05:15.048Z,6.73
2023-05-14T05:08:47.328Z,6.90
2023-05-14T05:12:19.740Z,6.57
2023-05-14T05:15:52.161Z,6.68
2023-05-14T05:19:35.625Z,6.50
2023-05-14T05:23:08.287Z,6.60
2023-05-14T05:26:40.953Z,6.80
2023-05-14T05:30:13.516Z,7.28
2023-05-14T05:33:45.300Z,5.60
2023-05-14T05:37:17.640Z,6.30
2023-05-14T05:40:49.643Z,7.10
2023-05-14T05:44:21.487Z,6.43
2023-05-14T05:47:53.570Z,6.55
2023-05-14T05:51:25.296Z,6.30
2023-05-14T05:54:57.362Z,6.30
2023-05-14T05:58:29.653Z,6.47
2023-05-14T06:02:01.482Z,6.88
2023-05-14T06:05:33.696Z,6.78
2023-05-14T06:09:07.092Z,6.80
2023-05-14T06:12:38.911Z,7.10
2023-05-14T06:16:13.265Z,7.00
2023-05-14T06:19:45.556Z,7.00
2023-05-14T06:23:17.329Z,6.45
2023-05-14T06:26:49.412Z,6.68
2023-05-14T06:30:21.663Z,6.40
2023-05-14T06:33:53.616Z,6.33
2023-05-14T06:37:26.024Z,6.30
2023-05-14T06:40:57.778Z,5.45
2023-05-14T06:44:31.285Z,6.45
2023-05-14T06:48:04.436Z,5.60
2023-05-14T06:51:36.416Z,5.90
2023-05-14T06:55:08.808Z,5.93
2023-05-14T06:58:40.762Z,6.15
2023-05-14T07:02:12.493Z,5.45
2023-05-14T07:05:46.780Z,5.47
2023-05-14T07:09:18.750Z,5.47
2023-05-14T07:12:50.814Z,5.20
2023-05-14T07:16:22.772Z,4.60
2023-05-14T07:19:56.075Z,4.15
2023-05-14T07:23:28.058Z,4.00
2023-05-14T07:27:01.076Z,4.37
2023-05-14T07:30:33.196Z,4.80
2023-05-14T07:34:05.217Z,3.88
2023-05-14T07:37:38.012Z,3.58
2023-05-14T07:41:11.565Z,2.97
2023-05-14T07:44:43.715Z,3.03
2023-05-14T07:48:15.881Z,3.33
2023-05-14T07:51:48.251Z,3.55
2023-05-14T07:55:22.542Z,4.07
2023-05-14T07:58:56.327Z,3.63
2023-05-14T08:02:28.751Z,3.50
2023-05-14T08:06:00.868Z,4.10
2023-05-14T08:09:32.987Z,3.40
2023-05-14T08:13:05.063Z,3.33
2023-05-14T08:16:37.082Z,4.00
2023-05-14T08:20:09.913Z,3.65
2023-05-14T08:23:41.920Z,3.33
2023-05-14T08:27:13.788Z,3.15
2023-05-14T08:30:45.957Z,3.10
2023-05-14T08:34:18.108Z,3.10
2023-05-14T08:37:50.279Z,3.10
2023-05-14T08:41:22.512Z,3.33
2023-05-14T08:45:00.915Z,3.58
2023-05-14T08:48:37.791Z,2.80
2023-05-14T08:52:10.860Z,3.03
2023-05-14T08:55:44.249Z,2.67
2023-05-14T08:59:16.268Z,2.90
2023-05-14T09:02:49.245Z,2.40
2023-05-14T09:06:22.736Z,2.37
2023-05-14T09:09:55.325Z,2.40
2023-05-14T09:13:28.369Z,2.22
2023-05-14T09:17:00.694Z,2.42
2023-05-14T09:20:32.850Z,2.50
2023-05-14T09:24:05.112Z,2.07
2023-05-14T09:27:36.936Z,2.53
2023-05-14T09:31:09.723Z,2.20
2023-05-14T09:34:42.318Z,2.40
2023-05-14T09:38:14.889Z,2.13
2023-05-14T09:41:47.089Z,2.70
2023-05-14T09:45:18.885Z,2.50
2023-05-14T09:48:51.008Z,2.63
2023-05-14T09:52:26.381Z,2.53
2023-05-14T09:55:58.230Z,2.33
2023-05-14T09:59:30.388Z,2.50
2023-05-14T10:03:08.483Z,3.35
2023-05-14T10:06:42.510Z,2.42
2023-05-14T10:10:18.787Z,2.47
2023-05-14T10:14:11.799Z,2.73
2023-05-14T10:17:49.478Z,2.53
2023-05-14T10:21:22.702Z,3.10
2023-05-14T10:24:55.883Z,2.22
2023-05-14T10:28:28.567Z,2.65
2023-05-14T10:32:06.047Z,2.20
2023-05-14T10:35:56.636Z,2.50
2023-05-14T10:39:49.723Z,2.65
2023-05-14T10:43:25.078Z,1.85
2023-05-14T10:46:57.115Z,2.28
2023-05-14T10:50:29.887Z,2.40
2023-05-14T10:54:01.973Z,2.35
2023-05-14T10:57:40.254Z,2.88
2023-05-14T11:01:13.880Z,2.00
2023-05-14T11:04:56.226Z,2.65
2023-05-14T11:08:29.482Z,2.17
2023-05-14T11:12:01.678Z,2.45
2023-05-14T11:15:33.639Z,2.50
2023-05-14T11:19:05.998Z,3.15
2023-05-14T11:22:40.051Z,2.70
2023-05-14T11:26:13.093Z,2.07
2023-05-14T11:29:48.019Z,2.85
2023-05-14T11:33:20.514Z,2.42
2023-05-14T11:36:52.682Z,2.65
2023-05-14T11:40:24.736Z,3.10
2023-05-14T11:43:58.472Z,2.40
2023-05-14T11:47:33.553Z,2.13
2023-05-14T11:51:05.900Z,3.08
2023-05-14T11:54:37.925Z,2.67
2023-05-14T11:58:10.045Z,3.55
2023-05-14T12:01:42.288Z,2.60
2023-05-14T12:05:14.457Z,2.70
2023-05-14T12:08:48.535Z,3.35
2023-05-14T12:12:23.453Z,2.55
2023-05-14T12:15:57.573Z,2.78
2023-05-14T12:19:30.877Z,2.63
2023-05-14T12:23:02.934Z,2.03
2023-05-14T12:26:35.258Z,2.90
2023-05-14T12:33:42.869Z,1.85
2023-05-14T12:37:14.745Z,1.73
2023-05-14T12:40:47.592Z,1.80
2023-05-14T12:44:19.352Z,2.40
2023-05-14T12:47:51.618Z,2.17
2023-05-14T12:51:24.029Z,2.20
2023-05-14T12:54:55.767Z,1.90
2023-05-14T12:58:27.901Z,2.33
2023-05-14T13:01:59.683Z,2.10
2023-05-14T13:05:31.860Z,1.98
2023-05-14T13:09:04.247Z,2.35
2023-05-14T13:12:36.284Z,2.43
2023-05-14T13:16:08.132Z,2.47
2023-05-14T13:19:40.317Z,2.75
2023-05-14T13:23:12.322Z,2.08
2023-05-14T13:26:44.955Z,2.58
2023-05-14T13:30:18.471Z,2.00
2023-05-14T13:33:50.194Z,2.50
2023-05-14T13:37:22.342Z,2.40
2023-05-14T13:40:54.423Z,2.05
2023-05-14T13:44:27.713Z,2.35
2023-05-14T13:47:59.828Z,2.47
2023-05-14T13:51:31.555Z,2.10
2023-05-14T13:55:03.931Z,2.40
2023-05-14T13:58:35.862Z,2.17
2023-05-14T14:02:08.597Z,2.10
2023-05-14T14:05:40.530Z,2.20
2023-05-14T14:09:13.950Z,2.28
2023-05-14T14:12:46.134Z,1.85
2023-05-14T14:16:17.873Z,2.25
2023-05-14T14:19:50.076Z,2.17
2023-05-14T14:23:22.979Z,2.77
2023-05-14T14:26:55.006Z,2.83
2023-05-14T14:30:26.826Z,2.35
2023-05-14T14:33:58.800Z,2.70
2023-05-14T14:37:30.394Z,2.67
2023-05-14T14:41:07.114Z,2.23
2023-05-14T14:44:39.076Z,2.63
2023-05-14T14:48:22.717Z,3.15
2023-05-14T14:51:54.935Z,2.85
2023-05-14T14:55:27.262Z,2.90
2023-05-14T14:58:59.101Z,2.80
2023-05-14T15:02:34.810Z,2.97
2023-05-14T15:06:07.256Z,2.75
2023-05-14T15:09:39.049Z,2.20
2023-05-14T15:13:12.486Z,2.20
2023-05-14T15:16:44.751Z,2.07
2023-05-14T15:20:17.042Z,1.60
2023-05-14T15:23:51.861Z,2.30
2023-05-14T15:27:24.318Z,2.20
2023-05-14T15:30:58.087Z,2.08
2023-05-14T15:34:30.236Z,2.07
2023-05-14T15:38:02.236Z,2.10
2023-05-14T15:41:34.574Z,2.42
2023-05-14T15:45:07.031Z,2.15
2023-05-14T15:48:38.740Z,2.17
2023-05-14T15:52:10.894Z,1.60
2023-05-14T15:55:42.873Z,1.60
2023-05-14T15:59:18.043Z,1.77
2023-05-14T16:02:51.335Z,1.92
2023-05-14T16:06:23.144Z,2.10
2023-05-14T16:09:56.622Z,1.83
2023-05-14T16:13:28.389Z,2.00
2023-05-14T16:17:01.791Z,2.08
2023-05-14T16:20:33.785Z,1.90
2023-05-14T16:24:06.309Z,2.20
2023-05-14T16:27:39.171Z,1.70
2023-05-14T16:31:11.433Z,1.63
2023-05-14T16:34:49.719Z,1.75
2023-05-14T16:38:21.874Z,2.33
2023-05-14T16:41:53.856Z,1.87
2023-05-14T16:45:26.078Z,1.80
2023-05-14T16:48:58.620Z,2.05
2023-05-14T16:52:30.996Z,2.20
2023-05-14T16:56:03.942Z,2.35
2023-05-14T16:59:36.099Z,2.43
2023-05-14T17:03:07.972Z,1.90
2023-05-14T17:06:40.265Z,2.63
2023-05-14T17:10:12.010Z,2.10
2023-05-14T17:13:44.173Z,2.20
2023-05-14T17:17:19.213Z,2.23
2023-05-14T17:20:52.101Z,2.38
2023-05-14T17:24:26.400Z,2.50
2023-05-14T17:27:58.481Z,2.13
2023-05-14T17:31:30.597Z,2.37
2023-05-14T17:35:03.107Z,2.15
2023-05-14T17:38:35.000Z,2.30
2023-05-14T17:42:09.030Z,2.30
2023-05-14T17:45:53.287Z,2.00
2023-05-14T17:49:26.846Z,2.40
2023-05-14T17:52:58.881Z,1.95
2023-05-14T17:56:30.577Z,2.63
2023-05-14T18:00:04.897Z,2.22
2023-05-14T18:03:37.241Z,2.23
2023-05-14T18:07:09.263Z,1.50
2023-05-14T18:10:41.076Z,1.60
2023-05-14T18:14:13.400Z,1.45
2023-05-14T18:17:45.690Z,1.33
2023-05-14T18:21:17.441Z,1.53
2023-05-14T18:24:49.515Z,1.53
2023-05-14T18:28:21.903Z,1.25
2023-05-14T18:31:53.951Z,1.20
2023-05-14T18:35:26.334Z,1.13
2023-05-14T18:38:58.716Z,1.43
2023-05-14T18:42:31.440Z,1.55
2023-05-14T18:46:04.363Z,1.52
2023-05-14T18:49:38.827Z,1.42
2023-05-14T18:53:10.724Z,1.40
2023-05-14T18:56:46.800Z,1.63
2023-05-14T19:00:20.785Z,1.65
2023-05-14T19:03:53.139Z,1.63
2023-05-14T19:07:25.846Z,1.63
2023-05-14T19:10:58.089Z,1.30
2023-05-14T19:14:31.365Z,1.17
2023-05-14T19:18:03.200Z,1.30
2023-05-14T19:21:35.326Z,1.20
2023-05-14T19:25:08.404Z,1.50
2023-05-14T19:28:40.719Z,1.60
2023-05-14T19:32:12.566Z,4.32
2023-05-14T19:35:44.900Z,14.82
2023-05-14T19:39:18.021Z,22.33
2023-05-14T19:42:49.901Z,17.17
2023-05-14T19:46:22.118Z,15.43
2023-05-14T19:49:55.490Z,9.23
2023-05-14T19:53:30.975Z,6.35
2023-05-14T19:57:02.701Z,4.57
2023-05-14T20:00:34.987Z,4.27
2023-05-14T20:04:09.184Z,3.95
2023-05-14T20:07:42.603Z,4.65
2023-05-14T20:11:15.668Z,4.57
2023-05-14T20:14:47.976Z,4.03
2023-05-14T20:18:20.068Z,3.83
2023-05-14T20:21:52.159Z,3.78
2023-05-14T20:25:25.922Z,3.50
2023-05-14T20:29:00.006Z,2.60
2023-05-14T20:32:32.266Z,2.37
2023-05-14T20:36:05.326Z,2.55
2023-05-14T20:39:37.273Z,2.63
2023-05-14T20:43:09.176Z,2.75
2023-05-14T20:46:41.260Z,4.43
2023-05-14T20:50:13.926Z,6.38
2023-05-14T20:53:46.735Z,6.75
2023-05-14T20:57:19.796Z,7.00
2023-05-14T21:00:51.628Z,5.57
2023-05-14T21:04:23.860Z,5.20
2023-05-14T21:07:55.705Z,5.07
2023-05-14T21:11:27.839Z,5.13
2023-05-14T21:14:59.548Z,4.28
2023-05-14T21:18:32.962Z,3.37
2023-05-14T21:22:06.420Z,3.20
2023-05-14T21:25:38.611Z,2.60
2023-05-14T21:29:11.280Z,3.05
2023-05-14T21:32:43.385Z,2.92
2023-05-14T21:36:15.592Z,4.33
2023-05-14T21:39:47.349Z,3.40
2023-05-14T21:43:19.425Z,3.72
2023-05-14T21:46:51.224Z,4.00
2023-05-14T21:50:23.620Z,3.85
2023-05-14T21:53:55.440Z,4.00
2023-05-14T21:57:28.902Z,4.40
2023-05-14T22:01:01.581Z,4.45
2023-05-14T22:04:33.639Z,3.63
2023-05-14T22:08:06.015Z,3.93
2023-05-14T22:11:38.253Z,4.37
2023-05-14T22:15:10.974Z,4.15
2023-05-14T22:18:42.812Z,4.72
2023-05-14T22:22:14.836Z,3.58
2023-05-14T22:25:46.958Z,4.90
2023-05-14T22:29:18.955Z,3.97
2023-05-14T22:32:50.817Z,3.42
2023-05-14T22:36:22.875Z,3.00
2023-05-14T22:39:54.702Z,3.47
2023-05-14T22:43:26.752Z,3.03
2023-05-14T22:46:59.229Z,2.85
2023-05-14T22:50:31.456Z,3.63
2023-05-14T22:54:03.865Z,2.93
2023-05-14T22:57:35.678Z,2.85
2023-05-14T23:01:07.641Z,3.45
2023-05-14T23:04:39.859Z,3.40
2023-05-14T23:08:11.807Z,3.43
2023-05-14T23:11:43.771Z,3.80
2023-05-14T23:15:15.774Z,3.90
2023-05-14T23:18:47.848Z,3.30
2023-05-14T23:22:20.290Z,3.23
2023-05-14T23:25:53.788Z,3.60
2023-05-14T23:29:25.868Z,3.90
2023-05-14T23:32:57.764Z,4.07
2023-05-14T23:36:31.513Z,4.82
2023-05-14T23:40:04.574Z,4.87
2023-05-14T23:43:36.684Z,5.35
2023-05-14T23:47:08.813Z,4.60
2023-05-14T23:50:40.732Z,4.72
2023-05-14T23:54:12.912Z,4.80
2023-05-14T23:57:45.228Z,4.77
